Time;durP1;ratioP1;P1;durP2;ratioP2;P2;SDS_P1;SDS_P2;PMS_P1;PMS_P2;Temp;Humidity;BMP_temperature;BMP_pressure;BME280_temperature;BME280_humidity;BME280_pressure;Samples;Min_cycle;Max_cycle;Signal;HPM_P1;HPM_P2
2021/11/17 02:27:49;;;;;;;;;;;;;;;;;;;;;
2021/11/17 02:35:19;;;;;;;48.67;17.05;;;;;;;6.14;100.00;92675.22;6148974;22;20532;-92
2021/11/17 02:38:51;;;;;;;;;;;;;;;;;;;;;
2021/11/17 02:42:15;;;;;;;;;;;;;;;;;;;;;
2021/11/17 02:46:04;;;;;;;38.40;16.70;;;;;;;6.22;100.00;92655.78;6227140;23;20012;-94
2021/11/17 02:52:48;;;;;;;;;;;;;;;;;;;;;
2021/11/17 02:56:20;;;;;;;;;;;;;;;;;;;;;
2021/11/17 02:59:39;;;;;;;;;;;;;;;;;;;;;
2021/11/17 03:07:10;;;;;;;;;;;;;;;;;;;;;
2021/11/17 03:14:39;;;;;;;35.22;13.20;;;;;;;6.20;100.00;92648.22;6213143;23;20016;-93
2021/11/17 03:18:36;;;;;;;;;;;;;;;;;;;;;
2021/11/17 03:21:26;;;;;;;25.30;12.65;;;;;;;6.51;100.00;92669.13;6124037;23;20532;-93
2021/11/17 03:24:38;;;;;;;;;;;;;;;;;;;;;
2021/11/17 03:27:52;;;;;;;42.15;15.07;;;;;;;6.31;100.00;92664.66;6123901;23;20017;-93
2021/11/17 03:31:36;;;;;;;33.63;14.13;;;;;;;6.30;100.00;92672.69;6123785;23;20017;-93
2021/11/17 03:34:53;;;;;;;38.72;15.38;;;;;;;6.31;100.00;92675.06;6094770;23;20034;-94
2021/11/17 03:42:07;;;;;;;39.78;16.55;;;;;;;6.28;100.00;92670.34;6157765;23;20013;-93
2021/11/17 03:46:07;;;;;;;;;;;;;;;;;;;;;
2021/11/17 03:49:44;;;;;;;34.45;15.05;;;;;;;6.21;100.00;92662.81;6211739;23;20300;-94
2021/11/17 03:53:09;;;;;;;;;;;;;;;;;;;;;
2021/11/17 04:00:24;;;;;;;37.88;16.80;;;;;;;6.31;100.00;92676.88;6096207;23;20018;-94
2021/11/17 04:03:58;;;;;;;;;;;;;;;;;;;;;
2021/11/17 04:12:11;;;;;;;;;;;;;;;;;;;;;
2021/11/17 04:15:25;;;;;;;;;;;;;;;;;;;;;
2021/11/17 04:18:55;;;;;;;;;;;;;;;;;;;;;
2021/11/17 04:22:04;;;;;;;49.60;18.58;;;;;;;6.34;100.00;92679.72;6174874;23;20091;-94
2021/11/17 04:25:55;;;;;;;;;;;;;;;;;;;;;
2021/11/17 04:40:11;;;;;;;38.08;14.98;;;;;;;6.34;100.00;92671.94;6206696;23;20013;-94
2021/11/17 04:43:50;;;;;;;;;;;;;;;;;;;;;
2021/11/17 04:58:23;;;;;;;;;;;;;;;;;;;;;
2021/11/17 05:04:55;;;;;;;;;;;;;;;;;;;;;
2021/11/17 05:08:26;;;;;;;;;;;;;;;;;;;;;
2021/11/17 05:14:49;;;;;;;;;;;;;;;;;;;;;
2021/11/17 05:18:02;;;;;;;148.68;9.88;;;;;;;6.35;100.00;92670.91;6155022;23;20032;-94
2021/11/17 05:21:37;;;;;;;;;;;;;;;;;;;;;
2021/11/17 05:27:52;;;;;;;73.47;14.60;;;;;;;6.26;100.00;92680.25;6182871;23;20017;-94
2021/11/17 05:34:38;;;;;;;52.70;13.50;;;;;;;6.23;100.00;92683.31;6210100;23;20802;-93
2021/11/17 05:38:13;;;;;;;41.83;15.05;;;;;;;6.15;100.00;92676.03;6200208;23;20390;-94
2021/11/17 05:48:33;;;;;;;;;;;;;;;;;;;;;
2021/11/17 05:59:03;;;;;;;;;;;;;;;;;;;;;
2021/11/17 06:02:30;;;;;;;31.05;11.80;;;;;;;6.23;100.00;92691.13;6292714;22;20023;-94
2021/11/17 06:08:28;;;;;;;25.13;10.60;;;;;;;6.27;100.00;92699.22;6310158;22;20019;-95
2021/11/17 06:11:44;;;;;;;33.35;10.00;;;;;;;6.20;100.00;92686.44;6284338;22;20011;-96
2021/11/17 06:15:13;;;;;;;;;;;;;;;;;;;;;
2021/11/17 06:18:01;;;;;;;99.30;7.50;;;;;;;6.22;100.00;92695.56;6309593;22;20015;-95
2021/11/17 06:20:51;;;;;;;78.95;9.50;;;;;;;6.21;100.00;92693.19;6286466;22;20027;-96
2021/11/17 06:31:21;;;;;;;64.88;8.43;;;;;;;6.29;100.00;92723.16;6288176;22;20247;-96
2021/11/17 06:38:55;;;;;;;;;;;;;;;;;;;;;
2021/11/17 06:42:02;;;;;;;;;;;;;;;;;;;;;
2021/11/17 06:45:24;;;;;;;63.38;9.25;;;;;;;6.20;100.00;92709.84;6309408;22;20073;-96
2021/11/17 06:48:09;;;;;;;64.93;8.18;;;;;;;6.23;100.00;92722.31;6309244;22;20401;-96
2021/11/17 06:51:03;;;;;;;119.72;14.73;;;;;;;6.19;100.00;92729.06;6281622;22;20503;-96
2021/11/17 06:54:01;;;;;;;162.23;10.30;;;;;;;6.18;100.00;92732.72;6283819;22;20041;-96
2021/11/17 07:03:24;;;;;;;187.55;7.35;;;;;;;6.12;100.00;92742.28;6307450;22;20019;-96
2021/11/17 07:06:42;;;;;;;159.38;6.97;;;;;;;6.10;100.00;92746.94;6286029;22;20011;-94
2021/11/17 07:10:19;;;;;;;;;;;;;;;;;;;;;
2021/11/17 07:16:32;;;;;;;34.80;12.13;;;;;;;6.18;100.00;92758.69;6299556;22;20023;-95
2021/11/17 07:19:28;;;;;;;30.55;9.93;;;;;;;6.23;100.00;92756.13;6289771;22;20071;-95
2021/11/17 07:33:44;;;;;;;24.83;8.93;;;;;;;6.61;100.00;92788.81;6104323;22;20030;-77
2021/11/17 07:36:10;;;;;;;24.13;9.18;;;;;;;6.67;100.00;92787.03;6303865;22;20019;-78
2021/11/17 07:38:36;;;;;;;20.50;8.52;;;;;;;6.72;100.00;92786.25;6306168;22;20018;-79
2021/11/17 07:41:02;;;;;;;26.95;9.23;;;;;;;6.79;100.00;92790.19;6306269;22;20011;-78
2021/11/17 07:43:28;;;;;;;19.58;8.63;;;;;;;6.87;100.00;92791.53;6304030;22;20022;-79
2021/11/17 07:45:57;;;;;;;20.17;9.10;;;;;;;6.93;100.00;92794.91;6305459;22;20011;-78
2021/11/17 07:48:25;;;;;;;20.60;8.35;;;;;;;6.97;100.00;92793.38;6306012;22;19995;-77
2021/11/17 07:50:53;;;;;;;97.70;9.38;;;;;;;6.98;100.00;92790.53;6306933;22;20079;-77
2021/11/17 07:53:22;;;;;;;68.82;9.63;;;;;;;6.90;100.00;92800.63;6305973;22;19999;-77
2021/11/17 07:55:50;;;;;;;129.00;7.10;;;;;;;6.92;100.00;92793.34;6306718;22;20061;-78
2021/11/17 07:58:19;;;;;;;45.10;10.20;;;;;;;6.92;100.00;92793.34;6307880;22;20330;-78
2021/11/17 08:00:50;;;;;;;108.43;9.98;;;;;;;6.73;100.00;92796.38;6307064;22;20043;-78
2021/11/17 08:03:18;;;;;;;102.43;10.43;;;;;;;6.67;100.00;92805.22;6309226;22;20003;-77
2021/11/17 08:05:46;;;;;;;125.65;13.15;;;;;;;6.66;100.00;92814.06;6306159;22;20005;-77
2021/11/17 08:12:06;;;;;;;91.43;8.75;;;;;;;6.79;100.00;92811.00;6308249;22;20017;-78
2021/11/17 08:14:32;;;;;;;28.92;10.40;;;;;;;6.82;100.00;92817.50;6306896;22;20425;-77
2021/11/17 08:16:58;;;;;;;31.27;11.00;;;;;;;6.87;100.00;92823.53;6307740;22;20075;-77
2021/11/17 08:19:23;;;;;;;24.00;9.35;;;;;;;6.93;100.00;92820.94;6306529;22;20033;-79
2021/11/17 08:21:49;;;;;;;18.20;8.15;;;;;;;6.96;100.00;92817.81;6305842;22;19999;-78
2021/11/17 08:24:15;;;;;;;20.45;9.00;;;;;;;7.06;100.00;92815.25;6304240;22;20016;-77
2021/11/17 08:26:41;;;;;;;49.13;10.10;;;;;;;7.19;100.00;92812.16;6303721;22;20014;-78
2021/11/17 08:29:09;;;;;;;99.93;19.92;;;;;;;7.16;100.00;92812.69;6303951;22;20349;-77
2021/11/17 08:31:34;;;;;;;159.75;14.10;;;;;;;6.93;100.00;92816.50;6304557;22;20000;-78
2021/11/17 08:34:00;;;;;;;104.60;9.40;;;;;;;6.93;100.00;92821.72;6302092;22;20015;-78
2021/11/17 08:36:26;;;;;;;188.48;9.15;;;;;;;7.01;100.00;92828.25;6302906;22;20042;-78
2021/11/17 08:38:54;;;;;;;96.18;11.93;;;;;;;6.80;100.00;92822.19;6301867;22;20019;-77
2021/11/17 08:41:23;;;;;;;170.30;10.25;;;;;;;6.73;100.00;92826.84;6302334;22;20105;-80
2021/11/17 08:43:49;;;;;;;165.52;8.32;;;;;;;6.71;100.00;92828.91;6277418;22;20019;-78
2021/11/17 08:46:15;;;;;;;244.57;9.30;;;;;;;6.66;100.00;92837.47;6305629;22;20003;-80
2021/11/17 08:48:42;;;;;;;287.13;8.57;;;;;;;6.76;100.00;92832.34;6305672;22;20018;-81
2021/11/17 08:51:11;;;;;;;237.55;9.27;;;;;;;6.82;100.00;92833.94;6308293;22;19999;-78
2021/11/17 08:53:39;;;;;;;283.33;9.98;;;;;;;6.88;100.00;92845.91;6302743;22;20015;-79
2021/11/17 08:56:10;;;;;;;204.20;8.38;;;;;;;6.98;100.00;92846.97;6302755;22;19996;-78
2021/11/17 08:58:37;;;;;;;187.98;9.85;;;;;;;7.08;100.00;92849.63;6303919;22;20022;-79
2021/11/17 09:01:03;;;;;;;148.60;10.65;;;;;;;6.98;100.00;92845.19;6279520;22;20082;-78
2021/11/17 09:03:30;;;;;;;42.60;10.18;;;;;;;7.01;100.00;92849.88;6306556;22;20064;-79
2021/11/17 09:05:59;;;;;;;138.88;10.70;;;;;;;7.09;100.00;92851.19;6306626;22;20007;-80
2021/11/17 09:08:25;;;;;;;201.48;9.80;;;;;;;7.01;100.00;92849.88;6305368;22;20038;-77
2021/11/17 09:10:55;;;;;;;151.30;9.18;;;;;;;6.97;100.00;92853.22;6306668;22;19995;-78
2021/11/17 09:13:21;;;;;;;163.50;7.60;;;;;;;6.99;100.00;92854.53;6306613;22;20011;-77
2021/11/17 09:15:50;;;;;;;253.48;9.23;;;;;;;6.84;100.00;92849.25;6306057;22;20488;-78
2021/11/17 09:18:18;;;;;;;208.93;8.20;;;;;;;6.81;100.00;92850.56;6308334;22;20015;-79
2021/11/17 09:20:45;;;;;;;251.10;8.68;;;;;;;6.86;100.00;92855.78;6307779;22;20006;-78
2021/11/17 09:23:11;;;;;;;228.95;8.52;;;;;;;6.83;100.00;92853.69;6305747;22;20007;-80
2021/11/17 09:25:38;;;;;;;174.65;10.38;;;;;;;6.87;100.00;92854.75;6306070;22;20000;-77
2021/11/17 09:28:05;;;;;;;265.30;8.98;;;;;;;6.88;100.00;92851.09;6306013;22;20358;-80
2021/11/17 09:30:32;;;;;;;146.52;10.30;;;;;;;6.82;100.00;92862.56;6281651;22;20007;-79
2021/11/17 09:32:59;;;;;;;353.25;11.40;;;;;;;6.87;100.00;92867.00;6332383;22;20079;-78
2021/11/17 09:35:29;;;;;;;254.40;9.07;;;;;;;6.90;100.00;92874.28;6281613;22;20324;-79
2021/11/17 09:37:55;;;;;;;246.60;11.35;;;;;;;6.95;100.00;92871.69;6308650;22;20323;-78
2021/11/17 09:40:27;;;;;;;133.25;11.25;;;;;;;7.02;100.00;92869.63;6330938;22;20004;-80
2021/11/17 09:42:54;;;;;;;129.55;10.88;;;;;;;7.09;100.00;92872.81;6306072;22;20073;-79
2021/11/17 09:45:21;;;;;;;158.85;13.43;;;;;;;7.14;100.00;92873.84;6306588;22;20430;-79
2021/11/17 09:47:49;;;;;;;153.98;8.93;;;;;;;7.20;100.00;92878.03;6307150;22;20022;-79
2021/11/17 09:50:29;;;;;;;207.38;10.57;;;;;;;7.14;100.00;92866.84;6307171;22;19999;-78
2021/11/17 09:53:00;;;;;;;113.47;10.55;;;;;;;7.00;100.00;92873.53;6307197;22;20011;-77
2021/11/17 09:55:29;;;;;;;199.57;8.80;;;;;;;6.96;100.00;92882.88;6307110;22;20035;-79
2021/11/17 09:58:04;;;;;;;165.40;8.10;;;;;;;6.96;100.00;92867.25;6306481;22;20003;-80
2021/11/17 10:00:51;;;;;;;276.85;11.77;;;;;;;6.97;100.00;92868.84;6305891;22;20061;-78
2021/11/17 10:03:55;;;;;;;220.60;11.95;;;;;;;6.97;100.00;92868.84;6307523;22;20018;-79
2021/11/17 10:14:38;;;;;;;213.85;31.77;;;;;;;7.21;100.00;92869.22;6306518;22;20017;-80
2021/11/17 10:17:43;;;;;;;214.77;24.30;;;;;;;7.21;100.00;92880.41;6306732;22;20011;-80
2021/11/17 10:20:20;;;;;;;172.27;21.58;;;;;;;7.28;100.00;92886.16;6306523;22;20380;-79
2021/11/17 10:23:03;;;;;;;139.63;25.77;;;;;;;7.38;100.00;92890.59;6305840;22;20076;-80
2021/11/17 10:25:47;;;;;;;52.85;17.10;;;;;;;7.47;100.00;92888.28;6306276;22;20015;-78
2021/11/17 10:28:21;;;;;;;238.35;31.00;;;;;;;7.40;100.00;92891.13;6306506;22;20022;-79
2021/11/17 10:30:52;;;;;;;301.08;25.55;;;;;;;7.43;100.00;92889.81;6305880;22;20130;-77
2021/11/17 10:34:03;;;;;;;351.60;30.42;;;;;;;7.26;100.00;92893.44;6308722;22;20048;-79
2021/11/17 10:36:47;;;;;;;462.50;32.72;;;;;;;7.25;100.00;92891.88;6308085;22;20442;-79
2021/11/17 10:39:12;;;;;;;327.90;33.78;;;;;;;7.22;100.00;92896.81;6254672;22;20019;-80
2021/11/17 10:41:59;;;;;;;380.85;23.67;;;;;;;7.25;100.00;92885.88;6255193;22;20007;-79
2021/11/17 10:44:32;;;;;;;289.30;21.00;;;;;;;7.29;100.00;92881.72;6309090;22;20033;-79
2021/11/17 10:47:28;;;;;;;278.08;27.10;;;;;;;7.33;100.00;92887.22;6308640;22;20026;-77
2021/11/17 10:50:15;;;;;;;215.95;28.20;;;;;;;7.33;100.00;92887.22;6308768;22;20014;-79
2021/11/17 10:53:05;;;;;;;258.27;29.33;;;;;;;7.37;100.00;92877.84;6308064;22;20007;-79
2021/11/17 10:55:40;;;;;;;154.60;23.52;;;;;;;7.55;100.00;92874.00;6309238;22;20460;-79
2021/11/17 10:58:09;;;;;;;205.43;18.50;;;;;;;7.49;100.00;92873.97;6308439;22;20007;-80
2021/11/17 11:00:40;;;;;;;387.13;23.08;;;;;;;7.56;100.00;92870.34;6308134;22;20426;-78
2021/11/17 11:03:08;;;;;;;337.17;20.98;;;;;;;7.53;100.00;92866.44;6306129;22;20014;-79
2021/11/17 11:05:42;;;;;;;303.90;19.17;;;;;;;7.51;100.00;92868.50;6276771;22;20390;-78
2021/11/17 11:08:38;;;;;;;218.52;20.60;;;;;;;7.61;100.00;92860.72;6305053;22;20022;-78
2021/11/17 11:11:06;;;;;;;147.27;19.52;;;;;;;7.75;100.00;92857.63;6303673;22;20062;-79
2021/11/17 11:13:39;;;;;;;211.02;21.17;;;;;;;7.85;100.00;92858.38;6304783;22;20025;-76
2021/11/17 11:16:28;;;;;;;278.15;17.45;;;;;;;7.91;100.00;92865.16;6276087;22;20058;-79
2021/11/17 11:19:14;;;;;;;353.63;16.05;;;;;;;7.94;100.00;92863.88;6304202;22;20094;-79
2021/11/17 11:21:45;;;;;;;251.57;17.70;;;;;;;7.94;100.00;92853.44;6303668;22;20026;-79
2021/11/17 11:24:32;;;;;;;346.42;15.88;;;;;;;7.95;100.00;92852.41;6303907;22;20022;-78
2021/11/17 11:26:57;;;;;;;227.73;14.43;;;;;;;7.68;100.00;92850.03;6276820;22;20090;-81
2021/11/17 11:29:29;;;;;;;455.25;14.45;;;;;;;7.84;100.00;92848.25;6304584;22;20376;-78
2021/11/17 11:31:57;;;;;;;522.08;15.68;;;;;;;7.84;100.00;92846.41;6303824;22;20349;-78
2021/11/17 11:34:38;;;;;;;387.30;18.20;;;;;;;7.83;100.00;92849.25;6303601;22;20015;-79
2021/11/17 11:37:25;;;;;;;337.38;14.10;;;;;;;7.67;100.00;92848.47;6305621;22;20033;-79
2021/11/17 11:40:01;;;;;;;331.90;11.40;;;;;;;7.60;100.00;92851.31;6304972;22;20064;-79
2021/11/17 11:42:48;;;;;;;441.02;14.20;;;;;;;7.70;100.00;92856.56;6305231;22;20015;-80
2021/11/17 11:45:25;;;;;;;249.18;10.30;;;;;;;7.69;100.00;92854.97;6304918;22;20094;-77
2021/11/17 11:47:57;;;;;;;270.23;14.00;;;;;;;7.71;100.00;92852.13;6278646;22;20423;-77
2021/11/17 11:50:32;;;;;;;360.42;15.13;;;;;;;7.69;100.00;92849.00;6304929;22;20011;-78
2021/11/17 11:53:16;;;;;;;251.55;15.40;;;;;;;7.89;100.00;92853.44;6305281;22;20009;-78
2021/11/17 11:55:53;;;;;;;212.95;18.33;;;;;;;8.10;100.00;92859.44;6306052;22;20007;-79
2021/11/17 11:58:20;;;;;;;95.10;20.38;;;;;;;8.25;100.00;92851.63;6277398;22;20011;-78
2021/11/17 12:01:12;;;;;;;119.38;19.02;;;;;;;8.48;100.00;92847.69;6305311;22;20506;-76
2021/11/17 12:03:48;;;;;;;62.63;18.85;;;;;;;8.68;100.00;92848.69;6279260;22;20430;-79
2021/11/17 12:06:31;;;;;;;59.40;16.90;;;;;;;9.04;100.00;92846.75;6304967;22;20365;-79
2021/11/17 12:09:21;;;;;;;47.05;14.73;;;;;;;9.38;98.79;92846.09;6305000;22;20011;-80
2021/11/17 12:11:58;;;;;;;48.78;15.68;;;;;;;9.43;96.27;92835.59;6298104;22;20015;-78
2021/11/17 12:14:29;;;;;;;84.28;15.52;;;;;;;9.33;96.40;92846.13;6306580;22;20015;-80
2021/11/17 12:16:56;;;;;;;321.17;16.77;;;;;;;8.86;98.56;92842.13;6279118;22;20101;-81
2021/11/17 12:19:45;;;;;;;301.75;14.75;;;;;;;8.58;100.00;92848.72;6305214;22;20370;-78
2021/11/17 12:22:44;;;;;;;404.55;15.68;;;;;;;8.88;99.07;92851.25;6305182;22;20007;-80
2021/11/17 12:25:20;;;;;;;56.50;17.67;;;;;;;9.08;99.43;92847.03;6293136;22;20015;-79
2021/11/17 12:27:52;;;;;;;65.72;21.00;;;;;;;9.27;98.86;92847.97;6305682;22;20083;-79
2021/11/17 12:30:36;;;;;;;48.80;18.20;;;;;;;9.45;97.71;92835.34;6305532;22;20022;-80
2021/11/17 12:33:19;;;;;;;39.92;15.10;;;;;;;9.67;96.75;92832.34;6279610;22;20027;-82
2021/11/17 12:35:46;;;;;;;;;;;;;;;9.85;93.79;92836.16;6308797;22;20003;-79
2021/11/17 12:38:23;;;;;;;101.82;12.00;;;;;;;9.45;95.53;92828.28;6306426;22;20276;-79
2021/11/17 12:40:54;;;;;;;173.68;16.65;;;;;;;9.16;97.98;92831.56;6306133;22;20060;-79
2021/11/17 12:43:42;;;;;;;315.25;13.95;;;;;;;9.23;97.42;92827.88;6281826;22;20007;-79
2021/11/17 12:46:23;;;;;;;325.30;15.75;;;;;;;9.13;98.55;92833.94;6308022;22;20035;-80
2021/11/17 12:49:13;;;;;;;192.73;17.45;;;;;;;9.19;97.78;92832.88;6308474;22;20007;-80
2021/11/17 12:51:52;;;;;;;66.78;16.50;;;;;;;9.05;97.04;92839.69;6307611;22;20007;-79
2021/11/17 12:54:33;;;;;;;53.40;18.15;;;;;;;9.13;96.79;92829.47;6307806;22;20015;-80
2021/11/17 12:57:05;;;;;;;39.25;15.40;;;;;;;9.12;95.48;92827.94;6308091;22;20501;-80
2021/11/17 12:59:46;;;;;;;44.25;17.30;;;;;;;9.01;95.96;92825.63;6306308;22;20007;-80
2021/11/17 13:02:21;;;;;;;53.97;18.13;;;;;;;9.29;96.47;92821.56;6305811;22;20007;-78
2021/11/17 13:04:50;;;;;;;55.83;17.98;;;;;;;9.26;96.65;92825.50;6307491;22;20013;-78
2021/11/17 13:07:33;;;;;;;43.38;16.27;;;;;;;9.35;96.46;92821.28;6308518;22;20521;-78
2021/11/17 13:09:59;;;;;;;42.95;15.02;;;;;;;9.41;94.42;92818.63;6307371;22;20329;-81
2021/11/17 13:12:27;;;;;;;57.10;20.90;;;;;;;9.49;95.66;92826.69;6306917;22;20424;-77
2021/11/17 13:15:04;;;;;;;78.18;15.25;;;;;;;9.46;95.22;92821.25;6307135;22;20091;-79
2021/11/17 13:17:42;;;;;;;39.47;12.05;;;;;;;8.94;96.48;92831.16;6306127;22;20030;-78
2021/11/17 13:20:14;;;;;;;187.77;17.77;;;;;;;9.02;97.23;92832.41;6305901;22;20038;-80
2021/11/17 13:22:44;;;;;;;305.08;15.82;;;;;;;9.24;96.64;92829.44;6307775;22;20007;-77
2021/11/17 13:25:12;;;;;;;53.15;20.13;;;;;;;9.37;97.22;92821.78;6305617;22;20347;-79
2021/11/17 13:27:45;;;;;;;53.22;19.98;;;;;;;9.56;96.36;92826.38;6307770;22;19996;-79
2021/11/17 13:30:20;;;;;;;49.30;18.33;;;;;;;9.85;95.36;92821.22;6307103;22;20374;-79
2021/11/17 13:32:50;;;;;;;46.33;18.00;;;;;;;10.16;93.75;92813.94;6306643;22;20439;-78
2021/11/17 13:35:45;;;;;;;51.20;18.73;;;;;;;10.77;92.06;92817.03;6280035;22;20004;-80
2021/11/17 13:38:14;;;;;;;36.90;15.35;;;;;;;11.27;87.09;92820.13;6293696;22;20503;-78
2021/11/17 13:40:41;;;;;;;44.30;17.40;;;;;;;11.03;86.96;92814.91;6307906;22;20341;-79
2021/11/17 13:43:08;;;;;;;68.15;13.48;;;;;;;10.71;89.04;92808.44;6306823;22;20086;-82
2021/11/17 13:45:35;;;;;;;69.07;19.65;;;;;;;10.29;91.02;92796.03;6279038;22;20436;-79
2021/11/17 13:48:01;;;;;;;100.05;16.52;;;;;;;10.26;91.68;92807.03;6307161;22;20349;-77
2021/11/17 13:50:30;;;;;;;50.70;18.88;;;;;;;9.96;94.88;92799.19;6306739;22;20030;-79
2021/11/17 13:52:57;;;;;;;48.25;16.30;;;;;;;9.88;93.55;92789.28;6306714;22;20009;-80
2021/11/17 13:55:29;;;;;;;52.13;19.33;;;;;;;9.74;94.53;92794.38;6306023;22;20004;-80
2021/11/17 13:57:56;;;;;;;40.97;16.85;;;;;;;9.36;97.56;92793.31;6308079;22;20011;-79
2021/11/17 14:00:23;;;;;;;40.08;16.33;;;;;;;9.54;95.81;92797.13;6306758;22;20044;-80
2021/11/17 14:02:49;;;;;;;51.65;18.67;;;;;;;9.72;96.37;92793.09;6307606;22;20094;-79
2021/11/17 14:05:18;;;;;;;72.00;19.65;;;;;;;9.79;95.91;92783.91;6307356;22;20062;-80
2021/11/17 14:07:46;;;;;;;48.90;18.90;;;;;;;10.03;95.15;92796.25;6307373;22;20007;-79
2021/11/17 14:10:17;;;;;;;51.67;18.08;;;;;;;10.09;93.68;92799.63;6307200;22;20000;-79
2021/11/17 14:12:44;;;;;;;48.03;17.47;;;;;;;10.16;93.89;92792.22;6308145;22;20011;-79
2021/11/17 14:15:11;;;;;;;35.20;15.23;;;;;;;10.21;92.82;92797.41;6307408;22;20411;-78
2021/11/17 14:17:36;;;;;;;38.70;15.57;;;;;;;10.94;90.87;92798.25;6307325;22;20446;-79
2021/11/17 14:20:05;;;;;;;39.83;14.88;;;;;;;11.37;87.41;92799.03;6305548;22;20048;-79
2021/11/17 14:22:30;;;;;;;31.65;13.10;;;;;;;11.67;85.31;92797.81;6279034;22;20011;-80
2021/11/17 14:25:02;;;;;;;31.23;13.40;;;;;;;11.20;86.04;92804.72;6279864;22;20011;-79
2021/11/17 14:27:29;;;;;;;43.97;17.00;;;;;;;10.75;88.77;92803.44;6306175;22;20022;-79
2021/11/17 14:30:01;;;;;;;38.95;15.52;;;;;;;10.74;88.25;92800.06;6306840;22;20085;-79
2021/11/17 14:32:32;;;;;;;49.35;18.42;;;;;;;10.56;88.83;92796.31;6306665;22;20010;-79
2021/11/17 14:34:59;;;;;;;33.88;14.52;;;;;;;10.36;89.49;92801.75;6306448;22;20378;-79
2021/11/17 14:37:25;;;;;;;33.50;13.93;;;;;;;9.95;90.32;92802.06;6306583;22;20011;-79
2021/11/17 14:39:51;;;;;;;29.70;12.10;;;;;;;9.67;89.90;92804.34;6279659;22;20011;-79
2021/11/17 14:42:16;;;;;;;32.47;14.88;;;;;;;9.42;91.18;92809.75;6305959;22;20007;-78
2021/11/17 14:44:43;;;;;;;27.67;12.85;;;;;;;9.31;91.29;92809.81;6307810;22;20630;-79
2021/11/17 14:47:09;;;;;;;26.17;10.85;;;;;;;9.27;91.42;92806.16;6306317;22;20003;-80
2021/11/17 14:49:35;;;;;;;25.45;11.68;;;;;;;9.24;91.13;92804.09;6306828;22;20061;-79
2021/11/17 14:52:05;;;;;;;36.28;14.48;;;;;;;9.30;92.75;92804.84;6307119;22;20003;-80
2021/11/17 14:54:32;;;;;;;39.53;16.20;;;;;;;9.37;93.69;92802.72;6306011;22;20015;-80
2021/11/17 14:56:58;;;;;;;38.80;15.85;;;;;;;9.40;93.90;92801.41;6307281;22;19999;-78
2021/11/17 14:59:23;;;;;;;37.47;15.55;;;;;;;9.41;93.94;92797.72;6307225;22;20015;-80
2021/11/17 15:01:49;;;;;;;35.45;15.27;;;;;;;9.40;94.34;92799.56;6279369;22;20011;-78
2021/11/17 15:04:15;;;;;;;40.47;17.40;;;;;;;9.40;95.12;92796.19;6305885;22;20011;-78
2021/11/17 15:06:43;;;;;;;42.67;16.45;;;;;;;9.38;95.49;92797.22;6306984;22;20015;-79
2021/11/17 15:09:11;;;;;;;35.78;14.80;;;;;;;9.32;95.50;92800.13;6306862;22;20264;-78
2021/11/17 15:12:14;;;;;;;34.58;14.70;;;;;;;9.27;95.57;92800.94;6307026;22;20084;-78
2021/11/17 15:14:40;;;;;;;34.38;15.07;;;;;;;9.14;95.89;92798.91;6306444;22;20007;-77
2021/11/17 15:17:06;;;;;;;39.70;16.65;;;;;;;8.98;95.73;92807.88;6306694;22;19999;-78
2021/11/17 15:19:32;;;;;;;34.53;14.75;;;;;;;8.91;96.44;92798.50;6304927;22;20486;-79
2021/11/17 15:21:57;;;;;;;33.90;14.18;;;;;;;8.75;95.53;92807.44;6308561;22;20000;-80
2021/11/17 15:24:23;;;;;;;31.40;12.98;;;;;;;8.61;95.68;92801.22;6309528;22;20051;-79
2021/11/17 15:26:54;;;;;;;33.25;13.60;;;;;;;8.57;96.23;92800.19;6306217;22;20035;-76
2021/11/17 15:29:21;;;;;;;36.15;15.02;;;;;;;8.51;97.53;92812.47;6306733;22;20015;-77
2021/11/17 15:31:46;;;;;;;36.00;14.73;;;;;;;8.53;97.61;92805.97;6306584;22;20003;-77
2021/11/17 15:34:13;;;;;;;32.60;14.02;;;;;;;8.48;98.20;92808.56;6305456;22;20454;-78
2021/11/17 15:36:58;;;;;;;36.35;14.85;;;;;;;8.45;98.23;92805.72;6306425;22;20014;-77
2021/11/17 15:39:24;;;;;;;30.02;13.68;;;;;;;8.51;97.69;92812.47;6279619;22;20018;-78
2021/11/17 15:41:50;;;;;;;31.60;14.73;;;;;;;8.50;97.48;92816.91;6305300;22;20000;-78
2021/11/17 15:44:16;;;;;;;41.50;17.35;;;;;;;8.43;98.46;92816.41;6277156;22;20034;-78
2021/11/17 15:47:04;;;;;;;48.92;16.90;;;;;;;8.37;99.58;92814.03;6304659;22;20694;-78
2021/11/17 15:49:32;;;;;;;52.72;17.63;;;;;;;8.38;99.03;92813.78;6302886;22;20011;-78
2021/11/17 15:51:58;;;;;;;51.50;18.25;;;;;;;8.32;99.91;92804.41;6304746;22;19995;-78
2021/11/17 15:54:24;;;;;;;39.13;16.17;;;;;;;8.27;100.00;92810.41;6304456;22;20011;-78
2021/11/17 15:56:52;;;;;;;40.42;15.75;;;;;;;8.17;100.00;92807.03;6277696;22;19999;-78
2021/11/17 15:59:19;;;;;;;50.80;17.20;;;;;;;8.12;100.00;92811.19;6304525;22;20033;-78
2021/11/17 16:01:47;;;;;;;54.53;16.75;;;;;;;8.14;100.00;92813.53;6277582;22;20002;-78
2021/11/17 16:04:13;;;;;;;51.70;18.63;;;;;;;8.16;100.00;92815.91;6304922;22;20011;-77
2021/11/17 16:07:11;;;;;;;60.40;16.15;;;;;;;8.17;100.00;92815.63;6304203;22;20434;-78
2021/11/17 16:09:41;;;;;;;95.22;15.60;;;;;;;8.17;100.00;92823.44;6302960;22;20262;-77
2021/11/17 16:12:08;;;;;;;97.53;14.95;;;;;;;8.02;100.00;92823.47;6303866;22;20011;-78
2021/11/17 16:14:35;;;;;;;36.10;16.10;;;;;;;7.96;100.00;92822.69;6304747;22;20044;-78
2021/11/17 16:17:03;;;;;;;44.58;17.38;;;;;;;7.95;100.00;92826.34;6277685;22;20044;-77
2021/11/17 16:19:33;;;;;;;48.75;18.67;;;;;;;7.93;100.00;92834.41;6276782;22;20195;-78
2021/11/17 16:22:01;;;;;;;46.38;18.67;;;;;;;7.95;100.00;92836.78;6277548;22;20073;-77
2021/11/17 16:27:12;;;;;;;57.42;21.73;;;;;;;8.00;100.00;92843.81;6306923;22;20031;-78
2021/11/17 16:29:47;;;;;;;65.20;19.95;;;;;;;8.03;100.00;92851.88;6281232;22;20014;-79
2021/11/17 16:32:13;;;;;;;53.28;19.40;;;;;;;8.00;100.00;92844.59;6309461;22;20038;-78
2021/11/17 16:34:40;;;;;;;52.72;18.38;;;;;;;7.98;100.00;92845.91;6309171;22;20102;-80
2021/11/17 16:37:08;;;;;;;58.70;20.40;;;;;;;7.96;100.00;92843.53;6309883;22;20012;-78
2021/11/17 16:39:34;;;;;;;62.00;19.15;;;;;;;7.93;100.00;92839.63;6310048;22;20015;-78
2021/11/17 16:42:00;;;;;;;56.05;19.73;;;;;;;7.92;100.00;92837.28;6282300;22;20034;-78
2021/11/17 16:44:25;;;;;;;54.13;17.45;;;;;;;7.91;100.00;92835.72;6309712;22;19999;-78
2021/11/17 16:46:51;;;;;;;46.33;18.65;;;;;;;7.95;100.00;92841.19;6308663;22;20386;-77
2021/11/17 16:49:20;;;;;;;59.25;20.17;;;;;;;7.95;100.00;92839.38;6307910;22;20007;-79
2021/11/17 16:52:07;;;;;;;71.75;19.38;;;;;;;7.86;100.00;92843.53;6305646;22;20007;-79
2021/11/17 16:54:35;;;;;;;42.80;17.50;;;;;;;7.87;100.00;92845.09;6306939;22;20018;-79
2021/11/17 16:57:00;;;;;;;48.95;18.27;;;;;;;7.85;100.00;92858.38;6309293;22;19995;-78
2021/11/17 16:59:26;;;;;;;50.60;19.58;;;;;;;7.82;100.00;92848.50;6310955;22;20045;-78
2021/11/17 17:01:53;;;;;;;59.92;17.77;;;;;;;7.81;100.00;92849.50;6308848;22;20000;-78
2021/11/17 17:04:19;;;;;;;71.28;17.30;;;;;;;7.84;100.00;92854.22;6279041;22;20019;-77
2021/11/17 17:06:49;;;;;;;151.45;11.20;;;;;;;7.77;100.00;92848.50;6308258;22;20044;-79
2021/11/17 17:09:16;;;;;;;68.40;11.02;;;;;;;7.60;100.00;92861.75;6309002;22;20015;-79
2021/11/17 17:11:42;;;;;;;117.60;12.07;;;;;;;7.53;100.00;92860.44;6284145;22;19995;-77
2021/11/17 17:14:07;;;;;;;72.20;14.88;;;;;;;7.41;100.00;92863.28;6309471;22;20016;-79
2021/11/17 17:16:33;;;;;;;100.57;12.75;;;;;;;7.49;100.00;92865.38;6283416;22;20012;-77
2021/11/17 17:18:58;;;;;;;40.67;16.13;;;;;;;7.48;100.00;92869.81;6309309;22;20068;-79
2021/11/17 17:21:24;;;;;;;54.25;15.55;;;;;;;7.46;100.00;92876.31;6309374;22;20019;-78
2021/11/17 17:23:50;;;;;;;56.97;16.90;;;;;;;7.46;100.00;92876.31;6313237;22;20034;-79
2021/11/17 17:26:18;;;;;;;124.57;14.32;;;;;;;7.37;100.00;92875.25;6310544;22;20533;-78
2021/11/17 17:28:46;;;;;;;68.70;15.90;;;;;;;7.40;100.00;92882.53;6309518;22;19999;-79
2021/11/17 17:31:15;;;;;;;88.65;14.80;;;;;;;7.50;100.00;92878.16;6279269;22;20039;-79
2021/11/17 17:33:42;;;;;;;66.78;19.23;;;;;;;7.46;100.00;92886.72;6287122;22;20015;-77
2021/11/17 17:36:26;;;;;;;57.78;17.85;;;;;;;7.47;100.00;92888.28;6304367;22;20034;-78